createdAt,value
2023-03-30T00:01:17.365Z,96047.88
2023-03-30T00:03:45.939Z,96055.13
2023-03-30T00:06:21.074Z,96046.13
2023-03-30T00:08:49.117Z,96015.38
2023-03-30T00:11:17.344Z,96029.91
2023-03-30T00:13:44.644Z,96037.66
2023-03-30T00:16:13.808Z,96054.19
2023-03-30T00:18:45.605Z,96005.16
2023-03-30T00:21:12.224Z,96018.00
2023-03-30T00:23:39.528Z,96007.78
2023-03-30T00:26:07.570Z,95986.47
2023-03-30T00:28:34.782Z,96007.16
2023-03-30T00:31:02.227Z,96009.66
2023-03-30T00:33:44.029Z,95993.88
2023-03-30T00:36:12.438Z,96024.97
2023-03-30T00:38:39.215Z,95994.34
2023-03-30T00:41:07.125Z,96011.22
2023-03-30T00:43:34.095Z,95968.72
2023-03-30T00:46:01.206Z,95980.00
2023-03-30T00:48:32.021Z,95976.59
2023-03-30T00:51:04.914Z,96023.88
2023-03-30T00:53:35.244Z,96012.88
2023-03-30T00:56:04.722Z,95994.78
2023-03-30T00:58:32.094Z,96015.97
2023-03-30T01:01:02.745Z,96011.19
2023-03-30T01:03:32.693Z,96010.41
2023-03-30T01:06:02.905Z,95988.91
2023-03-30T01:08:32.573Z,95966.97
2023-03-30T01:11:01.585Z,95987.69
2023-03-30T01:13:30.628Z,95978.56
2023-03-30T01:16:22.450Z,95983.66
2023-03-30T01:19:07.190Z,95978.25
2023-03-30T01:21:55.566Z,95977.78
2023-03-30T01:25:02.820Z,95960.75
2023-03-30T01:27:48.400Z,95966.50
2023-03-30T01:30:44.420Z,95978.06
2023-03-30T01:33:42.106Z,95969.59
2023-03-30T01:36:40.210Z,95970.16
2023-03-30T01:39:57.515Z,95965.69
2023-03-30T01:42:51.095Z,95847.47
2023-03-30T01:45:22.782Z,95920.56
2023-03-30T01:48:01.583Z,95936.50
2023-03-30T01:50:35.165Z,95919.50
2023-03-30T01:53:11.877Z,95907.59
2023-03-30T01:55:45.396Z,95931.72
2023-03-30T01:58:21.604Z,95921.84
2023-03-30T02:00:51.005Z,95889.38
2023-03-30T02:03:23.624Z,95932.78
2023-03-30T02:05:54.142Z,95915.47
2023-03-30T02:08:26.114Z,95922.59
2023-03-30T02:10:54.960Z,95892.19
2023-03-30T02:13:23.583Z,95905.44
2023-03-30T02:15:57.019Z,95929.56
2023-03-30T02:18:24.040Z,95892.81
2023-03-30T02:20:50.838Z,95814.78
2023-03-30T02:23:21.346Z,95891.88
2023-03-30T02:25:48.354Z,95892.81
2023-03-30T02:28:18.452Z,95896.19
2023-03-30T02:30:47.143Z,95907.78
2023-03-30T02:33:24.411Z,95884.13
2023-03-30T02:36:01.020Z,95900.66
2023-03-30T02:38:37.409Z,95869.16
2023-03-30T02:41:40.293Z,95898.38
2023-03-30T02:44:30.638Z,95898.34
2023-03-30T02:47:06.946Z,95871.31
2023-03-30T02:49:41.719Z,95869.63
2023-03-30T02:52:14.768Z,95903.13
2023-03-30T02:54:57.303Z,95882.13
2023-03-30T02:58:18.657Z,95906.06
2023-03-30T03:00:59.353Z,95906.50
2023-03-30T03:03:38.517Z,95899.25
2023-03-30T03:06:09.415Z,95879.16
2023-03-30T03:08:44.804Z,95844.06
2023-03-30T03:11:14.405Z,95879.47
2023-03-30T03:13:41.145Z,95880.06
2023-03-30T03:16:13.341Z,95858.63
2023-03-30T03:18:52.565Z,95886.59
2023-03-30T03:21:19.279Z,95887.16
2023-03-30T03:23:48.397Z,95896.81
2023-03-30T03:26:18.608Z,95881.19
2023-03-30T03:28:45.308Z,95883.47
2023-03-30T03:31:13.412Z,95892.00
2023-03-30T03:33:40.674Z,95862.31
2023-03-30T03:36:14.264Z,95883.66
2023-03-30T03:38:51.130Z,95875.31
2023-03-30T03:41:17.978Z,95851.03
2023-03-30T03:43:45.000Z,95866.78
2023-03-30T03:46:12.841Z,95858.75
2023-03-30T03:48:40.537Z,95867.53
2023-03-30T03:51:07.768Z,95853.34
2023-03-30T03:53:35.696Z,95844.94
2023-03-30T03:56:06.180Z,95872.91
2023-03-30T03:58:34.026Z,95872.13
2023-03-30T04:01:02.563Z,95879.88
2023-03-30T04:03:29.965Z,95881.41
2023-03-30T04:06:02.621Z,95888.03
2023-03-30T04:08:29.832Z,95840.88
2023-03-30T04:11:10.016Z,95861.13
2023-03-30T04:13:48.274Z,95863.72
2023-03-30T04:16:49.025Z,95871.91
2023-03-30T04:19:55.073Z,95870.88
2023-03-30T04:22:37.341Z,95848.88
2023-03-30T04:25:29.014Z,95858.97
2023-03-30T04:28:33.027Z,95798.22
2023-03-30T04:31:11.035Z,95870.50
2023-03-30T04:33:51.931Z,95829.63
2023-03-30T04:36:38.323Z,95889.00
2023-03-30T04:39:33.975Z,95881.72
2023-03-30T04:42:34.011Z,95862.50
2023-03-30T04:45:20.731Z,95859.72
2023-03-30T04:48:03.036Z,95705.38
2023-03-30T04:50:49.511Z,95874.47
2023-03-30T04:53:50.818Z,95846.94
2023-03-30T04:56:17.509Z,95846.19
2023-03-30T04:59:04.562Z,95876.00
2023-03-30T05:01:58.120Z,95860.25
2023-03-30T05:04:45.323Z,95866.50
2023-03-30T05:07:44.429Z,95861.25
2023-03-30T05:10:28.104Z,95892.94
2023-03-30T05:12:55.961Z,95848.16
2023-03-30T05:15:41.042Z,95883.13
2023-03-30T05:18:25.919Z,95853.47
2023-03-30T05:21:10.788Z,95874.31
2023-03-30T05:24:04.756Z,95855.00
2023-03-30T05:27:05.043Z,95855.44
2023-03-30T05:29:49.374Z,95861.94
2023-03-30T05:32:34.636Z,95857.88
2023-03-30T05:35:19.799Z,95873.31
2023-03-30T05:38:12.776Z,95900.53
2023-03-30T05:40:58.298Z,95898.53
2023-03-30T05:43:49.476Z,95893.41
2023-03-30T05:46:33.581Z,95859.06
2023-03-30T05:49:33.314Z,95890.16
2023-03-30T05:52:07.632Z,95831.88
2023-03-30T05:54:49.229Z,95893.88
2023-03-30T05:57:29.591Z,95882.50
2023-03-30T06:00:22.678Z,95825.78
2023-03-30T06:03:00.102Z,95855.72
2023-03-30T06:05:33.824Z,95851.56
2023-03-30T06:08:00.973Z,95858.88
2023-03-30T06:10:27.861Z,95827.97
2023-03-30T06:12:56.083Z,95835.59
2023-03-30T06:15:38.303Z,95844.00
2023-03-30T06:18:08.642Z,95855.63
2023-03-30T06:20:38.793Z,95870.31
2023-03-30T06:23:06.075Z,95845.63
2023-03-30T06:25:32.762Z,95832.81
2023-03-30T06:27:59.757Z,95811.50
2023-03-30T06:30:27.186Z,95815.13
2023-03-30T06:32:57.162Z,95833.31
2023-03-30T06:35:25.927Z,95822.34
2023-03-30T06:37:53.630Z,95795.78
2023-03-30T06:40:20.736Z,95793.00
2023-03-30T06:42:49.658Z,95831.91
2023-03-30T06:45:42.927Z,95805.50
2023-03-30T06:48:09.716Z,95786.34
2023-03-30T06:50:40.595Z,95805.50
2023-03-30T06:53:14.097Z,95770.63
2023-03-30T06:55:44.318Z,95763.69
2023-03-30T06:58:17.746Z,95725.56
2023-03-30T07:00:44.690Z,95737.31
2023-03-30T07:03:38.110Z,95634.94
2023-03-30T07:06:25.409Z,95693.03
2023-03-30T07:08:52.565Z,95680.06
2023-03-30T07:11:22.555Z,95718.59
2023-03-30T07:13:50.590Z,95715.97
2023-03-30T07:16:17.402Z,95712.56
2023-03-30T07:18:44.067Z,95727.31
2023-03-30T07:21:10.796Z,95756.16
2023-03-30T07:23:40.324Z,95770.16
2023-03-30T07:26:07.706Z,95765.06
2023-03-30T07:28:40.692Z,95727.63
2023-03-30T07:31:10.317Z,95734.06
2023-03-30T07:33:39.935Z,95722.03
2023-03-30T07:36:08.863Z,95734.44
2023-03-30T07:38:37.102Z,95731.75
2023-03-30T07:41:08.350Z,95723.88
2023-03-30T07:43:36.080Z,95716.66
2023-03-30T07:46:03.372Z,95756.34
2023-03-30T07:48:35.827Z,95738.22
2023-03-30T07:51:07.939Z,95711.72
2023-03-30T07:53:38.306Z,95745.34
2023-03-30T07:56:13.818Z,95708.88
2023-03-30T07:58:45.306Z,95698.19
2023-03-30T08:01:13.368Z,95754.28
2023-03-30T08:04:01.200Z,95763.56
2023-03-30T08:06:30.814Z,95739.88
2023-03-30T08:08:58.751Z,95766.56
2023-03-30T08:11:25.426Z,95734.66
2023-03-30T08:13:52.118Z,95792.66
2023-03-30T08:16:18.815Z,95746.78
2023-03-30T08:18:47.242Z,95800.88
2023-03-30T08:21:13.925Z,95815.78
2023-03-30T08:23:40.833Z,95809.88
2023-03-30T08:26:07.872Z,95817.16
2023-03-30T08:28:35.142Z,95845.13
2023-03-30T08:31:10.787Z,95844.44
2023-03-30T08:33:37.565Z,95830.13
2023-03-30T08:36:04.636Z,95813.22
2023-03-30T08:38:31.571Z,95777.56
2023-03-30T08:40:58.685Z,95834.16
2023-03-30T08:43:43.160Z,95836.00
2023-03-30T08:46:18.027Z,95825.03
2023-03-30T08:48:47.273Z,95807.22
2023-03-30T08:51:20.775Z,95826.03
2023-03-30T08:53:57.937Z,95825.44
2023-03-30T08:56:29.541Z,95819.06
2023-03-30T08:59:25.383Z,95832.22
2023-03-30T09:01:57.737Z,95847.06
2023-03-30T09:04:47.913Z,95847.97
2023-03-30T09:07:21.595Z,95839.84
2023-03-30T09:09:51.822Z,95866.59
2023-03-30T09:12:18.426Z,95870.94
2023-03-30T09:14:51.233Z,95886.28
2023-03-30T09:17:39.171Z,95879.81
2023-03-30T09:20:18.835Z,95865.88
2023-03-30T09:22:45.728Z,95855.72
2023-03-30T09:25:18.557Z,95859.22
2023-03-30T09:27:55.629Z,95802.59
2023-03-30T09:30:29.200Z,95807.97
2023-03-30T09:33:03.638Z,95774.03
2023-03-30T09:35:40.662Z,95794.72
2023-03-30T09:38:13.721Z,95832.81
2023-03-30T09:41:01.025Z,95831.50
2023-03-30T09:43:34.329Z,95836.91
2023-03-30T09:46:07.661Z,95823.22
2023-03-30T09:48:46.241Z,95835.03
2023-03-30T09:51:17.140Z,95828.88
2023-03-30T09:53:46.114Z,95830.56
2023-03-30T09:56:27.876Z,95832.56
2023-03-30T09:58:55.832Z,95802.16
2023-03-30T10:01:34.428Z,95828.94
2023-03-30T10:04:12.700Z,95825.69
2023-03-30T10:06:47.215Z,95820.81
2023-03-30T10:09:14.654Z,95818.56
2023-03-30T10:11:41.214Z,95789.69
2023-03-30T10:14:31.542Z,95790.06
2023-03-30T10:16:59.502Z,95768.53
2023-03-30T10:19:26.795Z,95803.66
2023-03-30T10:21:57.541Z,95814.44
2023-03-30T10:24:24.276Z,95817.31
2023-03-30T10:26:55.793Z,95812.03
2023-03-30T10:29:25.705Z,95803.13
2023-03-30T10:31:58.941Z,95805.75
2023-03-30T10:34:40.876Z,95796.66
2023-03-30T10:37:13.737Z,95811.84
2023-03-30T10:39:43.546Z,95743.25
2023-03-30T10:42:17.157Z,95808.22
2023-03-30T10:44:50.391Z,95806.91
2023-03-30T10:47:23.004Z,95776.03
2023-03-30T10:50:28.442Z,95753.31
2023-03-30T10:52:59.331Z,95745.59
2023-03-30T10:55:34.071Z,95752.78
2023-03-30T10:58:16.024Z,95744.19
2023-03-30T11:01:00.821Z,95753.94
2023-03-30T11:03:32.426Z,95757.91
2023-03-30T11:06:06.868Z,95702.34
2023-03-30T11:08:38.096Z,95725.16
2023-03-30T11:11:06.121Z,95733.59
2023-03-30T11:13:40.101Z,95771.50
2023-03-30T11:16:21.585Z,95767.84
2023-03-30T11:18:57.056Z,95775.53
2023-03-30T11:21:45.184Z,95751.25
2023-03-30T11:24:14.616Z,95756.13
2023-03-30T11:26:49.540Z,95717.56
2023-03-30T11:29:47.231Z,95756.13
2023-03-30T11:32:37.742Z,95786.16
2023-03-30T11:35:36.164Z,95778.38
2023-03-30T11:38:12.674Z,95784.72
2023-03-30T11:41:04.289Z,95779.06
2023-03-30T11:43:31.598Z,95741.09
2023-03-30T11:46:04.493Z,95792.03
2023-03-30T11:48:49.746Z,95755.88
2023-03-30T11:51:38.439Z,95781.59
2023-03-30T11:54:20.517Z,95752.53
2023-03-30T11:57:00.745Z,95778.19
2023-03-30T11:59:54.382Z,95763.78
2023-03-30T12:02:56.579Z,95791.63
2023-03-30T12:05:45.910Z,95779.69
2023-03-30T12:08:49.265Z,95793.56
2023-03-30T12:11:25.446Z,95764.16
2023-03-30T12:13:52.530Z,95776.00
2023-03-30T12:16:38.004Z,95753.16
2023-03-30T12:19:17.262Z,95778.97
2023-03-30T12:22:06.336Z,95784.94
2023-03-30T12:24:47.814Z,95743.84
2023-03-30T12:27:17.482Z,95749.22
2023-03-30T12:30:02.385Z,95787.88
2023-03-30T12:32:30.872Z,95762.16
2023-03-30T12:34:58.450Z,95790.47
2023-03-30T12:37:37.523Z,95772.38
2023-03-30T12:40:20.774Z,95788.09
2023-03-30T12:43:09.322Z,95759.97
2023-03-30T12:45:48.400Z,95800.44
2023-03-30T12:48:26.315Z,95796.31
2023-03-30T12:51:11.702Z,95793.81
2023-03-30T12:53:54.975Z,95804.69
2023-03-30T12:56:50.396Z,95767.97
2023-03-30T12:59:55.857Z,95747.97
2023-03-30T13:02:52.418Z,95774.84
2023-03-30T13:05:24.059Z,95798.00
2023-03-30T13:07:53.620Z,95704.78
2023-03-30T13:10:36.778Z,95782.09
2023-03-30T13:13:05.038Z,95771.31
2023-03-30T13:15:50.264Z,95787.59
2023-03-30T13:18:16.871Z,95781.94
2023-03-30T13:20:46.235Z,95784.91
2023-03-30T13:23:12.873Z,95773.25
2023-03-30T13:25:49.632Z,95778.78
2023-03-30T13:28:49.121Z,95768.59
2023-03-30T13:31:24.865Z,95773.97
2023-03-30T13:34:19.100Z,95770.91
2023-03-30T13:37:18.343Z,95741.16
2023-03-30T13:39:52.710Z,95788.94
2023-03-30T13:42:51.829Z,95773.81
2023-03-30T13:45:33.451Z,95747.16
2023-03-30T13:48:27.821Z,95761.72
2023-03-30T13:51:00.652Z,95729.09
2023-03-30T13:53:31.366Z,95677.13
2023-03-30T13:55:58.229Z,95701.72
2023-03-30T13:58:30.756Z,95678.38
2023-03-30T14:01:01.900Z,95667.16
2023-03-30T14:03:28.536Z,95746.75
2023-03-30T14:06:03.941Z,95717.81
2023-03-30T14:08:37.560Z,95736.91
2023-03-30T14:11:14.135Z,95756.72
2023-03-30T14:13:41.320Z,95734.00
2023-03-30T14:16:12.057Z,95731.34
2023-03-30T14:18:38.952Z,95724.75
2023-03-30T14:21:19.235Z,95738.66
2023-03-30T14:23:52.689Z,95731.75
2023-03-30T14:26:27.429Z,95732.53
2023-03-30T14:28:59.646Z,95665.28
2023-03-30T14:31:29.342Z,95713.84
2023-03-30T14:33:56.076Z,95666.56
2023-03-30T14:36:23.112Z,95727.13
2023-03-30T14:38:52.266Z,95672.09
2023-03-30T14:41:23.889Z,95701.16
2023-03-30T14:44:12.503Z,95705.25
2023-03-30T14:46:47.021Z,95697.00
2023-03-30T14:49:34.522Z,95702.25
2023-03-30T14:52:08.187Z,95720.13
2023-03-30T14:54:37.211Z,95664.44
2023-03-30T14:57:06.385Z,95698.25
2023-03-30T14:59:37.755Z,95715.16
2023-03-30T15:02:21.200Z,95702.78
2023-03-30T15:04:49.417Z,95715.34
2023-03-30T15:07:17.739Z,95718.75
2023-03-30T15:09:48.872Z,95703.56
2023-03-30T15:12:24.658Z,95719.31
2023-03-30T15:14:55.152Z,95639.16
2023-03-30T15:17:27.973Z,95724.44
2023-03-30T15:19:58.518Z,95638.59
2023-03-30T15:22:48.447Z,95707.94
2023-03-30T15:25:22.021Z,95709.88
2023-03-30T15:28:11.793Z,95699.72
2023-03-30T15:30:41.268Z,95716.97
2023-03-30T15:33:39.152Z,95720.72
2023-03-30T15:36:17.453Z,95678.84
2023-03-30T15:38:51.780Z,95703.03
2023-03-30T15:41:22.965Z,95693.88
2023-03-30T15:44:10.843Z,95629.19
2023-03-30T15:46:38.084Z,95609.56
2023-03-30T15:49:05.907Z,95622.50
2023-03-30T15:51:39.438Z,95673.81
2023-03-30T15:54:15.135Z,95599.66
2023-03-30T15:56:48.028Z,95688.53
2023-03-30T15:59:18.140Z,95639.44
2023-03-30T16:01:53.845Z,95701.94
2023-03-30T16:04:23.874Z,95710.53
2023-03-30T16:06:52.542Z,95711.63
2023-03-30T16:09:19.296Z,95671.91
2023-03-30T16:11:47.869Z,95584.25
2023-03-30T16:14:20.505Z,95700.69
2023-03-30T16:16:48.494Z,95693.25
2023-03-30T16:19:18.628Z,95593.88
2023-03-30T16:21:45.751Z,95717.22
2023-03-30T16:24:13.000Z,95668.63
2023-03-30T16:26:43.057Z,95676.91
2023-03-30T16:29:33.497Z,95618.66
2023-03-30T16:34:58.606Z,95627.16
2023-03-30T16:37:25.996Z,95664.69
2023-03-30T16:39:52.915Z,95786.88
2023-03-30T16:42:20.282Z,95691.69
2023-03-30T16:44:46.992Z,95723.16
2023-03-30T16:47:14.989Z,95630.59
2023-03-30T16:49:41.661Z,95759.53
2023-03-30T16:52:08.885Z,95608.19
2023-03-30T16:54:35.648Z,95792.50
2023-03-30T16:57:03.282Z,95679.75
2023-03-30T16:59:31.476Z,95777.56
2023-03-30T17:01:59.377Z,95739.63
2023-03-30T17:04:26.747Z,95776.13
2023-03-30T17:06:56.468Z,95760.19
2023-03-30T17:09:23.501Z,95770.84
2023-03-30T17:11:50.470Z,95687.16
2023-03-30T17:14:17.810Z,95715.38
2023-03-30T17:16:44.576Z,95613.88
2023-03-30T17:19:13.285Z,95692.72
2023-03-30T17:21:43.581Z,95713.28
2023-03-30T17:24:11.266Z,95657.44
2023-03-30T17:26:38.872Z,95750.06
2023-03-30T17:29:05.810Z,95589.09
2023-03-30T17:31:32.580Z,95723.88
2023-03-30T17:33:59.341Z,95764.31
2023-03-30T17:36:26.850Z,95763.72
2023-03-30T17:38:53.691Z,95602.47
2023-03-30T17:41:21.376Z,95686.78
2023-03-30T17:43:48.930Z,95696.91
2023-03-30T17:46:18.284Z,95577.94
2023-03-30T17:48:45.694Z,95690.13
2023-03-30T17:51:12.622Z,95579.88
2023-03-30T17:53:39.448Z,95615.09
2023-03-30T17:56:06.908Z,95766.59
2023-03-30T17:58:36.088Z,95654.97
2023-03-30T18:01:06.395Z,95775.66
2023-03-30T18:03:34.178Z,95673.41
2023-03-30T18:06:01.985Z,95843.44
2023-03-30T18:08:29.468Z,95792.75
2023-03-30T18:10:58.668Z,95832.56
2023-03-30T18:13:27.005Z,95846.44
2023-03-30T18:15:55.780Z,95835.22
2023-03-30T18:18:26.025Z,95814.03
2023-03-30T18:20:57.879Z,95827.50
2023-03-30T18:23:24.703Z,95760.13
2023-03-30T18:25:52.016Z,95820.06
2023-03-30T18:28:23.784Z,95774.03
2023-03-30T18:30:53.237Z,95749.00
2023-03-30T18:33:20.018Z,95771.53
2023-03-30T18:35:49.178Z,95814.72
2023-03-30T18:38:18.670Z,95786.41
2023-03-30T18:40:49.441Z,95805.38
2023-03-30T18:43:16.588Z,95777.19
2023-03-30T18:45:46.959Z,95802.00
2023-03-30T18:48:16.468Z,95713.53
2023-03-30T18:50:46.054Z,95810.56
2023-03-30T18:53:15.505Z,95820.84
2023-03-30T18:55:47.366Z,95809.25
2023-03-30T18:58:22.978Z,95830.91
2023-03-30T19:00:51.794Z,95763.00
2023-03-30T19:03:19.924Z,95824.44
2023-03-30T19:05:47.084Z,95801.88
2023-03-30T19:08:16.041Z,95826.94
2023-03-30T19:10:44.592Z,95806.97
2023-03-30T19:13:14.481Z,95829.25
2023-03-30T19:15:41.873Z,95823.09
2023-03-30T19:18:09.090Z,95739.53
2023-03-30T19:20:39.672Z,95828.03
2023-03-30T19:23:07.677Z,95743.56
2023-03-30T19:25:34.671Z,95838.69
2023-03-30T19:28:04.153Z,95794.88
2023-03-30T19:30:36.724Z,95767.91
2023-03-30T19:33:08.706Z,95833.28
2023-03-30T19:35:35.803Z,95821.56
2023-03-30T19:38:02.977Z,95814.91
2023-03-30T19:40:29.769Z,95772.63
2023-03-30T19:43:00.992Z,95821.84
2023-03-30T19:45:27.684Z,95740.19
2023-03-30T19:47:54.513Z,95827.97
2023-03-30T19:50:23.256Z,95663.84
2023-03-30T19:52:51.054Z,95775.78
2023-03-30T19:55:21.643Z,95852.47
2023-03-30T19:57:48.445Z,95802.50
2023-03-30T20:00:17.409Z,95848.88
2023-03-30T20:02:55.163Z,95834.19
2023-03-30T20:05:23.818Z,95843.13
2023-03-30T20:07:51.254Z,95836.00
2023-03-30T20:10:21.412Z,95783.72
2023-03-30T20:12:49.674Z,95838.28
2023-03-30T20:15:16.576Z,95800.66
2023-03-30T20:17:43.721Z,95839.06
2023-03-30T20:20:12.814Z,95849.13
2023-03-30T20:22:44.343Z,95800.81
2023-03-30T20:25:14.236Z,95836.31
2023-03-30T20:27:41.525Z,95840.63
2023-03-30T20:30:09.719Z,95848.22
2023-03-30T20:32:36.474Z,95755.78
2023-03-30T20:35:04.033Z,95823.63
2023-03-30T20:37:30.902Z,95789.88
2023-03-30T20:40:03.617Z,95777.50
2023-03-30T20:42:31.754Z,95807.09
2023-03-30T20:44:59.612Z,95765.00
2023-03-30T20:47:30.126Z,95823.88
2023-03-30T20:49:58.373Z,95827.34
2023-03-30T20:52:25.586Z,95800.81
2023-03-30T20:54:52.865Z,95803.63
2023-03-30T20:57:21.172Z,95829.25
2023-03-30T20:59:48.424Z,95831.25
2023-03-30T21:02:16.770Z,95828.22
2023-03-30T21:04:44.677Z,95819.56
2023-03-30T21:07:12.301Z,95781.31
2023-03-30T21:09:39.654Z,95802.91
2023-03-30T21:12:07.639Z,95780.06
2023-03-30T21:14:34.283Z,95798.88
2023-03-30T21:17:01.273Z,95743.34
2023-03-30T21:19:27.933Z,95816.63
2023-03-30T21:21:54.583Z,95773.44
2023-03-30T21:24:21.440Z,95775.75
2023-03-30T21:26:48.674Z,95769.41
2023-03-30T21:29:15.471Z,95802.41
2023-03-30T21:31:42.143Z,95782.84
2023-03-30T21:34:10.717Z,95769.72
2023-03-30T21:36:37.546Z,95801.69
2023-03-30T21:39:04.307Z,95749.63
2023-03-30T21:41:31.084Z,95783.94
2023-03-30T21:43:57.973Z,95807.84
2023-03-30T21:46:25.973Z,95795.78
2023-03-30T21:48:53.944Z,95782.03
2023-03-30T21:51:26.423Z,95789.59
2023-03-30T21:53:54.554Z,95798.25
2023-03-30T21:56:23.462Z,95778.78
2023-03-30T21:58:50.625Z,95797.78
2023-03-30T22:01:18.919Z,95793.44
2023-03-30T22:03:46.175Z,95774.03
2023-03-30T22:06:14.601Z,95795.03
2023-03-30T22:08:41.969Z,95794.13
2023-03-30T22:11:13.217Z,95769.53
2023-03-30T22:13:39.992Z,95733.91
2023-03-30T22:16:35.011Z,95765.84
2023-03-30T22:19:02.633Z,95723.88
2023-03-30T22:21:33.843Z,95746.13
2023-03-30T22:24:01.879Z,95761.03
2023-03-30T22:26:28.607Z,95761.31
2023-03-30T22:28:56.240Z,95723.84
2023-03-30T22:31:22.890Z,95743.72
2023-03-30T22:33:49.523Z,95736.13
2023-03-30T22:36:24.134Z,95783.88
2023-03-30T22:38:51.751Z,95780.91
2023-03-30T22:41:23.651Z,95736.00
2023-03-30T22:43:52.460Z,95740.88
2023-03-30T22:46:19.282Z,95777.84
2023-03-30T22:48:45.952Z,95744.25
2023-03-30T22:51:14.353Z,95762.94
2023-03-30T22:53:41.230Z,95781.13
2023-03-30T22:56:08.295Z,95750.28
2023-03-30T22:58:36.071Z,95744.44
2023-03-30T23:01:10.590Z,95766.19
2023-03-30T23:03:37.640Z,95733.66
2023-03-30T23:06:04.640Z,95733.00
2023-03-30T23:08:31.511Z,95730.81
2023-03-30T23:11:04.947Z,95765.03
2023-03-30T23:13:37.170Z,95629.59
2023-03-30T23:16:06.368Z,95752.72
2023-03-30T23:18:34.194Z,95764.00
2023-03-30T23:21:06.080Z,95666.75
2023-03-30T23:23:34.711Z,95725.84
2023-03-30T23:26:02.849Z,95700.38
2023-03-30T23:28:30.613Z,95688.78
2023-03-30T23:30:57.905Z,95687.81
2023-03-30T23:33:25.064Z,95671.97
2023-03-30T23:35:53.220Z,95670.03
2023-03-30T23:38:19.906Z,95667.75
2023-03-30T23:40:46.566Z,95691.47
2023-03-30T23:43:13.268Z,95672.72
2023-03-30T23:45:42.918Z,95657.66
2023-03-30T23:48:09.518Z,95616.53
2023-03-30T23:50:36.927Z,95595.63
2023-03-30T23:53:03.713Z,95641.19
2023-03-30T23:55:30.353Z,95637.09
2023-03-30T23:57:56.984Z,95595.34
